Time;durP1;ratioP1;P1;durP2;ratioP2;P2;SDS_P1;SDS_P2;PMS_P1;PMS_P2;Temp;Humidity;BMP_temperature;BMP_pressure;BME280_temperature;BME280_humidity;BME280_pressure;Samples;Min_cycle;Max_cycle;Signal;HPM_P1;HPM_P2
2023/06/19 00:00:26;;;;;;;;;;;21.40;99.90;;;;;;5032986;28;20246;-82
2023/06/19 00:02:54;;;;;;;;;;;21.30;99.90;;;;;;5014933;28;19925;-83
2023/06/19 00:05:23;;;;;;;;;;;21.30;99.90;;;;;;5015801;28;19925;-83
2023/06/19 00:07:51;;;;;;;;;;;21.30;99.90;;;;;;5009312;28;20012;-82
2023/06/19 00:10:16;;;;;;;;;;;21.20;99.90;;;;;;5026946;28;19931;-83
2023/06/19 00:12:44;;;;;;;;;;;21.20;99.90;;;;;;5000143;28;19925;-82
2023/06/19 00:15:12;;;;;;;;;;;21.10;99.90;;;;;;4999800;28;19979;-82
2023/06/19 00:17:38;;;;;;;;;;;21.20;99.90;;;;;;5023298;28;19933;-83
2023/06/19 00:20:05;;;;;;;;;;;21.10;99.90;;;;;;5015556;28;19925;-83
2023/06/19 00:22:31;;;;;;;;;;;21.10;99.90;;;;;;4996032;28;19926;-83
2023/06/19 00:24:56;;;;;;;;;;;21.10;99.90;;;;;;5024119;28;19951;-82
2023/06/19 00:27:24;;;;;;;;;;;21.10;99.90;;;;;;4994474;28;19947;-82
2023/06/19 00:29:52;;;;;;;;;;;21.10;99.90;;;;;;5015772;28;19952;-82
2023/06/19 00:32:18;;;;;;;;;;;21.10;99.90;;;;;;5005731;28;19933;-83
2023/06/19 00:34:43;;;;;;;;;;;21.10;99.90;;;;;;5011262;28;19948;-82
2023/06/19 00:37:09;;;;;;;;;;;21.10;99.90;;;;;;5033274;28;19936;-83
2023/06/19 00:39:35;;;;;;;;;;;21.10;99.90;;;;;;5031818;28;20067;-83
2023/06/19 00:42:01;;;;;;;;;;;21.10;99.90;;;;;;5014171;28;19936;-82
2023/06/19 00:44:26;;;;;;;;;;;21.10;99.90;;;;;;5013407;28;20300;-83
2023/06/19 00:46:57;;;;;;;;;;;21.00;99.90;;;;;;4995453;28;19925;-82
2023/06/19 00:49:22;;;;;;;;;;;21.00;99.90;;;;;;5028234;28;20092;-82
2023/06/19 00:51:48;;;;;;;;;;;21.00;99.90;;;;;;5005463;28;20405;-83
2023/06/19 00:54:14;;;;;;;;;;;20.90;99.90;;;;;;5000616;28;19925;-83
2023/06/19 00:56:41;;;;;;;;;;;20.90;99.90;;;;;;5012480;28;20011;-83
2023/06/19 00:59:11;;;;;;;;;;;20.90;99.90;;;;;;5031415;28;19975;-83
2023/06/19 01:01:37;;;;;;;;;;;20.90;99.90;;;;;;5029976;28;19991;-83
2023/06/19 01:04:03;;;;;;;;;;;20.90;99.90;;;;;;5013939;28;19929;-82
2023/06/19 01:06:38;;;;;;;;;;;20.90;99.90;;;;;;5031544;28;19935;-82
2023/06/19 01:09:09;;;;;;;;;;;20.80;99.90;;;;;;5031413;28;19925;-82
2023/06/19 01:11:39;;;;;;;;;;;20.80;99.90;;;;;;5027338;28;19975;-83
2023/06/19 01:14:25;;;;;;;;;;;20.80;99.90;;;;;;5031395;28;19932;-83
2023/06/19 01:16:51;;;;;;;;;;;20.70;99.90;;;;;;5039980;28;19941;-82
2023/06/19 01:19:20;;;;;;;;;;;20.70;99.90;;;;;;5030508;28;19932;-82
2023/06/19 01:21:46;;;;;;;;;;;20.90;99.90;;;;;;5031382;28;20292;-83
2023/06/19 01:24:12;;;;;;;;;;;20.70;99.90;;;;;;5030461;28;20008;-83
2023/06/19 01:26:38;;;;;;;;;;;20.70;99.90;;;;;;5031224;28;20028;-82
2023/06/19 01:29:06;;;;;;;;;;;20.70;99.90;;;;;;5014460;28;19944;-83
2023/06/19 01:31:38;;;;;;;;;;;20.70;99.90;;;;;;4996499;28;20412;-82
2023/06/19 01:34:06;;;;;;;;;;;20.80;99.90;;;;;;5010402;28;20436;-83
2023/06/19 01:36:31;;;;;;;;;;;20.80;99.90;;;;;;5010415;28;19964;-83
2023/06/19 01:38:57;;;;;;;;;;;20.90;99.90;;;;;;5032904;28;19984;-83
2023/06/19 01:41:23;;;;;;;;;;;20.90;99.90;;;;;;4997164;28;20322;-82
2023/06/19 01:43:49;;;;;;;;;;;20.90;99.90;;;;;;5029056;28;20405;-82
2023/06/19 01:46:15;;;;;;;;;;;20.90;99.90;;;;;;5034319;28;19925;-82
2023/06/19 01:48:40;;;;;;;;;;;20.90;99.90;;;;;;5007091;28;19926;-84
2023/06/19 01:51:06;;;;;;;;;;;20.90;99.90;;;;;;5018192;28;19932;-82
2023/06/19 01:53:32;;;;;;;;;;;20.90;99.90;;;;;;5034719;28;19935;-82
2023/06/19 01:55:58;;;;;;;;;;;20.90;99.90;;;;;;5014762;28;19936;-83
2023/06/19 01:58:24;;;;;;;;;;;21.00;99.90;;;;;;5032547;28;19932;-82
2023/06/19 02:00:49;;;;;;;;;;;20.90;99.90;;;;;;5034527;28;19925;-83
2023/06/19 02:03:15;;;;;;;;;;;21.00;99.90;;;;;;5033594;28;19925;-83
2023/06/19 02:05:40;;;;;;;;;;;21.00;99.90;;;;;;5034301;28;19925;-83
2023/06/19 02:08:06;;;;;;;;;;;21.00;99.90;;;;;;5018021;28;19925;-82
2023/06/19 02:10:32;;;;;;;;;;;21.00;99.90;;;;;;5034976;28;20387;-83
2023/06/19 02:12:58;;;;;;;;;;;21.00;99.90;;;;;;5015115;28;20362;-82
2023/06/19 02:15:24;;;;;;;;;;;21.00;99.80;;;;;;5031184;28;19925;-83
2023/06/19 02:17:54;;;;;;;;;;;21.00;99.10;;;;;;5013973;28;19956;-82
2023/06/19 02:20:21;;;;;;;;;;;21.10;99.30;;;;;;5017268;28;19925;-84
2023/06/19 02:22:55;;;;;;;;;;;21.10;98.70;;;;;;5049931;28;19968;-82
2023/06/19 02:25:21;;;;;;;;;;;21.10;98.50;;;;;;5017287;28;19976;-83
2023/06/19 02:27:47;;;;;;;;;;;21.10;98.60;;;;;;5034053;28;19925;-82
2023/06/19 02:30:13;;;;;;;;;;;21.10;98.80;;;;;;5012944;28;20316;-82
2023/06/19 02:32:39;;;;;;;;;;;21.10;98.60;;;;;;5033811;28;20334;-82
2023/06/19 02:35:06;;;;;;;;;;;21.10;97.90;;;;;;5017607;28;19980;-82
2023/06/19 02:37:31;;;;;;;;;;;21.10;98.10;;;;;;5004158;28;20337;-83
2023/06/19 02:39:58;;;;;;;;;;;21.10;97.70;;;;;;5032958;28;20767;-83
2023/06/19 02:42:23;;;;;;;;;;;21.10;98.20;;;;;;5017427;28;19929;-82
2023/06/19 02:44:49;;;;;;;;;;;21.10;98.10;;;;;;5016382;28;19937;-83
2023/06/19 02:47:15;;;;;;;;;;;21.10;98.00;;;;;;5033263;28;19936;-83
2023/06/19 02:49:40;;;;;;;;;;;21.10;98.00;;;;;;5032939;28;19969;-83
2023/06/19 02:52:06;;;;;;;;;;;21.10;97.80;;;;;;5017452;28;19925;-82
2023/06/19 02:54:32;;;;;;;;;;;21.10;98.00;;;;;;5016861;28;19948;-82
2023/06/19 02:56:57;;;;;;;;;;;21.00;98.20;;;;;;5035293;28;20021;-82
2023/06/19 02:59:23;;;;;;;;;;;21.00;98.00;;;;;;5033734;28;19948;-83
2023/06/19 03:01:48;;;;;;;;;;;21.00;98.20;;;;;;5017126;28;19937;-82
2023/06/19 03:04:14;;;;;;;;;;;20.90;97.90;;;;;;5016448;28;19925;-82
2023/06/19 03:06:40;;;;;;;;;;;20.90;98.20;;;;;;5033313;28;20356;-82
2023/06/19 03:09:11;;;;;;;;;;;20.90;98.20;;;;;;4995083;28;20042;-82
2023/06/19 03:11:40;;;;;;;;;;;20.80;98.20;;;;;;5017212;28;20293;-82
2023/06/19 03:14:07;;;;;;;;;;;20.80;98.20;;;;;;5016720;28;20036;-83
2023/06/19 03:16:36;;;;;;;;;;;20.80;98.20;;;;;;5010492;28;20045;-83
2023/06/19 03:19:01;;;;;;;;;;;20.80;98.30;;;;;;4989320;28;19929;-84
2023/06/19 03:21:28;;;;;;;;;;;20.80;98.10;;;;;;5030320;28;20274;-83
2023/06/19 03:23:54;;;;;;;;;;;20.80;98.80;;;;;;5013223;28;20020;-83
2023/06/19 03:26:24;;;;;;;;;;;20.70;98.60;;;;;;5016078;28;20393;-84
2023/06/19 03:28:50;;;;;;;;;;;20.70;98.80;;;;;;5016398;28;20024;-84
2023/06/19 03:31:16;;;;;;;;;;;20.70;98.80;;;;;;5013312;28;20004;-83
2023/06/19 03:33:41;;;;;;;;;;;20.70;98.60;;;;;;5014162;28;19929;-83
2023/06/19 03:36:07;;;;;;;;;;;20.70;99.10;;;;;;5033299;28;19933;-83
2023/06/19 03:38:33;;;;;;;;;;;20.70;99.00;;;;;;5015692;28;19925;-83
2023/06/19 03:40:58;;;;;;;;;;;20.70;99.00;;;;;;5032685;28;20020;-83
2023/06/19 03:43:24;;;;;;;;;;;20.60;99.20;;;;;;5033499;28;20051;-83
2023/06/19 03:45:50;;;;;;;;;;;20.60;99.30;;;;;;5012133;28;19925;-83
2023/06/19 03:48:16;;;;;;;;;;;20.60;99.40;;;;;;5028531;28;20370;-83
2023/06/19 03:50:41;;;;;;;;;;;20.60;99.50;;;;;;5033667;28;19933;-83
2023/06/19 03:53:07;;;;;;;;;;;20.60;99.90;;;;;;5033299;28;19925;-83
2023/06/19 03:55:33;;;;;;;;;;;20.60;99.90;;;;;;5015847;28;19925;-83
2023/06/19 03:57:58;;;;;;;;;;;20.70;99.90;;;;;;5015916;28;19930;-83
2023/06/19 04:00:24;;;;;;;;;;;20.70;99.90;;;;;;5015025;28;20329;-83
2023/06/19 04:02:50;;;;;;;;;;;20.70;99.90;;;;;;5014636;28;20412;-84
2023/06/19 04:05:15;;;;;;;;;;;20.70;99.90;;;;;;5032087;28;19925;-84
2023/06/19 04:07:41;;;;;;;;;;;20.70;99.90;;;;;;5033308;28;19925;-82
2023/06/19 04:10:07;;;;;;;;;;;20.60;99.90;;;;;;5032310;28;19983;-84
2023/06/19 04:12:32;;;;;;;;;;;20.70;99.90;;;;;;5031978;28;19926;-83
2023/06/19 04:14:58;;;;;;;;;;;20.60;99.90;;;;;;5011258;28;19931;-83
2023/06/19 04:17:24;;;;;;;;;;;20.60;99.90;;;;;;5012425;28;19936;-83
2023/06/19 04:19:49;;;;;;;;;;;20.60;99.90;;;;;;5015380;28;19936;-83
2023/06/19 04:22:15;;;;;;;;;;;20.60;99.90;;;;;;4998710;28;19972;-84
2023/06/19 04:24:40;;;;;;;;;;;20.50;99.90;;;;;;5026803;28;19925;-83
2023/06/19 04:27:08;;;;;;;;;;;20.50;99.90;;;;;;5018315;28;20066;-83
2023/06/19 04:29:35;;;;;;;;;;;20.50;99.90;;;;;;5021328;28;19989;-83
2023/06/19 04:32:03;;;;;;;;;;;20.50;99.90;;;;;;5031363;28;19936;-83
2023/06/19 04:34:28;;;;;;;;;;;20.60;99.90;;;;;;5029635;28;20377;-83
2023/06/19 04:36:58;;;;;;;;;;;20.60;99.90;;;;;;5032682;28;19971;-83
2023/06/19 04:39:23;;;;;;;;;;;20.60;99.90;;;;;;5015465;28;19948;-83
2023/06/19 04:41:49;;;;;;;;;;;20.50;99.90;;;;;;5031467;28;20385;-83
2023/06/19 04:44:15;;;;;;;;;;;20.50;99.90;;;;;;5031182;28;19943;-83
2023/06/19 04:46:46;;;;;;;;;;;20.50;99.90;;;;;;5012637;28;19996;-84
2023/06/19 04:49:12;;;;;;;;;;;20.50;99.90;;;;;;5014197;28;20376;-84
2023/06/19 04:51:38;;;;;;;;;;;20.50;99.90;;;;;;5031300;28;20019;-83
2023/06/19 04:54:05;;;;;;;;;;;20.50;99.90;;;;;;5008334;28;20416;-83
2023/06/19 04:56:32;;;;;;;;;;;20.50;99.90;;;;;;5030048;28;19925;-85
2023/06/19 04:59:00;;;;;;;;;;;20.50;99.90;;;;;;4998365;28;20496;-83
2023/06/19 05:01:30;;;;;;;;;;;20.50;99.90;;;;;;5030672;28;19932;-82
2023/06/19 05:03:59;;;;;;;;;;;20.50;99.90;;;;;;5030225;28;19925;-83
2023/06/19 05:06:25;;;;;;;;;;;20.50;99.90;;;;;;5030928;28;20389;-84
2023/06/19 05:08:51;;;;;;;;;;;20.50;99.90;;;;;;5031018;28;20012;-83
2023/06/19 05:11:16;;;;;;;;;;;20.50;99.90;;;;;;5031949;28;19948;-83
2023/06/19 05:13:42;;;;;;;;;;;20.50;99.90;;;;;;5030040;28;19925;-83
2023/06/19 05:16:08;;;;;;;;;;;20.50;99.90;;;;;;5007946;28;19925;-83
2023/06/19 05:18:33;;;;;;;;;;;20.50;99.90;;;;;;5011085;28;20340;-83
2023/06/19 05:20:59;;;;;;;;;;;20.50;99.90;;;;;;5031390;28;19932;-84
2023/06/19 05:23:24;;;;;;;;;;;20.50;99.90;;;;;;5029913;28;19932;-83
2023/06/19 05:25:50;;;;;;;;;;;20.60;99.90;;;;;;4994740;28;19929;-83
2023/06/19 05:28:16;;;;;;;;;;;20.50;99.90;;;;;;5027287;28;19943;-84
2023/06/19 05:30:41;;;;;;;;;;;20.50;99.90;;;;;;5011948;28;19972;-84
2023/06/19 05:33:07;;;;;;;;;;;20.50;99.90;;;;;;4997710;28;19925;-83
2023/06/19 05:35:33;;;;;;;;;;;20.50;99.90;;;;;;5014326;28;19925;-83
2023/06/19 05:38:01;;;;;;;;;;;20.50;99.90;;;;;;5013334;28;19925;-83
2023/06/19 05:40:28;;;;;;;;;;;20.60;99.90;;;;;;5031450;28;20315;-83
2023/06/19 05:42:55;;;;;;;;;;;20.70;99.90;;;;;;5011643;28;20377;-84
2023/06/19 05:45:21;;;;;;;;;;;20.70;99.90;;;;;;5028307;28;19925;-83
2023/06/19 05:47:46;;;;;;;;;;;20.70;99.90;;;;;;5030041;28;19925;-85
2023/06/19 05:50:12;;;;;;;;;;;20.70;99.90;;;;;;5030827;28;19964;-85
2023/06/19 05:52:42;;;;;;;;;;;20.80;99.90;;;;;;5011569;28;20005;-86
2023/06/19 05:55:08;;;;;;;;;;;20.90;99.90;;;;;;5030904;28;20290;-84
2023/06/19 05:57:36;;;;;;;;;;;21.00;99.90;;;;;;5031224;28;19925;-86
2023/06/19 06:00:03;;;;;;;;;;;21.00;99.90;;;;;;5014884;28;20040;-84
2023/06/19 06:02:31;;;;;;;;;;;21.00;99.90;;;;;;5014235;28;19933;-86
2023/06/19 06:04:57;;;;;;;;;;;20.90;99.90;;;;;;4994578;28;20332;-85
2023/06/19 06:07:22;;;;;;;;;;;20.80;99.90;;;;;;5032005;28;19979;-83
2023/06/19 06:09:48;;;;;;;;;;;20.80;99.90;;;;;;5014887;28;20015;-85
2023/06/19 06:12:14;;;;;;;;;;;20.80;99.90;;;;;;5002490;28;20533;-84
2023/06/19 06:14:40;;;;;;;;;;;20.80;99.90;;;;;;4993156;28;19943;-84
2023/06/19 06:17:06;;;;;;;;;;;20.80;99.90;;;;;;5005721;28;19932;-85
2023/06/19 06:19:31;;;;;;;;;;;20.80;99.90;;;;;;5010258;28;20376;-84
2023/06/19 06:21:57;;;;;;;;;;;20.80;99.90;;;;;;5021796;28;19925;-84
2023/06/19 06:24:23;;;;;;;;;;;20.80;99.90;;;;;;5010496;28;19926;-86
2023/06/19 06:26:56;;;;;;;;;;;20.90;99.90;;;;;;5026973;28;20367;-84
2023/06/19 06:29:21;;;;;;;;;;;20.80;99.90;;;;;;5028532;28;19925;-83
2023/06/19 06:31:47;;;;;;;;;;;20.80;99.90;;;;;;5012717;28;19937;-84
2023/06/19 06:34:13;;;;;;;;;;;20.80;99.90;;;;;;5014493;28;19926;-84
2023/06/19 06:36:39;;;;;;;;;;;20.80;99.90;;;;;;5031566;28;19925;-83
2023/06/19 06:39:05;;;;;;;;;;;20.90;99.90;;;;;;5028908;28;20020;-83
2023/06/19 06:41:40;;;;;;;;;;;21.00;99.90;;;;;;5029360;28;19979;-83
2023/06/19 06:44:06;;;;;;;;;;;21.00;99.90;;;;;;5014938;28;19925;-83
2023/06/19 06:46:31;;;;;;;;;;;21.00;99.90;;;;;;5013952;28;19933;-84
2023/06/19 06:48:57;;;;;;;;;;;21.00;99.90;;;;;;5030394;28;20051;-85
2023/06/19 06:51:22;;;;;;;;;;;21.10;99.90;;;;;;4995106;28;19934;-84
2023/06/19 06:53:48;;;;;;;;;;;21.10;99.90;;;;;;5015945;28;20431;-83
2023/06/19 06:56:14;;;;;;;;;;;21.10;99.90;;;;;;5014913;28;19939;-85
2023/06/19 06:58:39;;;;;;;;;;;21.10;99.90;;;;;;5032412;28;20419;-85
2023/06/19 07:01:05;;;;;;;;;;;21.10;99.90;;;;;;5027503;28;19975;-83
2023/06/19 07:03:32;;;;;;;;;;;21.10;99.90;;;;;;4994804;28;19933;-84
2023/06/19 07:05:57;;;;;;;;;;;21.00;99.90;;;;;;5028791;28;19947;-83
2023/06/19 07:08:23;;;;;;;;;;;20.90;99.90;;;;;;5010151;28;19928;-83
2023/06/19 07:10:49;;;;;;;;;;;20.90;99.90;;;;;;4999468;28;20281;-84
2023/06/19 07:13:14;;;;;;;;;;;20.70;99.90;;;;;;5026987;28;19925;-83
2023/06/19 07:15:40;;;;;;;;;;;20.60;99.90;;;;;;5032667;28;19975;-85
2023/06/19 07:18:06;;;;;;;;;;;20.50;99.90;;;;;;5012330;28;19926;-85
2023/06/19 07:20:32;;;;;;;;;;;20.40;99.90;;;;;;4999226;28;19925;-84
2023/06/19 07:22:57;;;;;;;;;;;20.30;99.90;;;;;;4998835;28;19925;-84
2023/06/19 07:25:25;;;;;;;;;;;20.20;99.90;;;;;;5013340;28;19972;-84
2023/06/19 07:27:50;;;;;;;;;;;20.20;99.90;;;;;;4998904;28;19932;-84
2023/06/19 07:30:16;;;;;;;;;;;20.20;99.90;;;;;;5015089;28;19927;-84
2023/06/19 07:32:42;;;;;;;;;;;20.20;99.90;;;;;;4989869;28;20365;-83
2023/06/19 07:35:08;;;;;;;;;;;20.20;99.90;;;;;;5023549;28;19933;-84
2023/06/19 07:37:33;;;;;;;;;;;20.20;99.90;;;;;;5009717;28;19929;-82
2023/06/19 07:39:59;;;;;;;;;;;20.10;99.90;;;;;;4996423;28;19929;-84
2023/06/19 07:42:25;;;;;;;;;;;20.10;99.90;;;;;;4995766;28;19997;-84
2023/06/19 07:44:51;;;;;;;;;;;20.20;99.90;;;;;;5015260;28;19925;-84
2023/06/19 07:47:20;;;;;;;;;;;20.10;99.90;;;;;;5012736;28;19936;-86
2023/06/19 07:49:46;;;;;;;;;;;20.00;99.90;;;;;;5007144;28;19926;-84
2023/06/19 07:52:12;;;;;;;;;;;20.20;99.90;;;;;;5025685;28;20436;-84
2023/06/19 07:54:57;;;;;;;;;;;20.20;99.90;;;;;;5025055;28;20035;-84
2023/06/19 07:57:24;;;;;;;;;;;20.30;99.90;;;;;;5019234;28;19925;-84
2023/06/19 07:59:51;;;;;;;;;;;20.40;99.90;;;;;;5031637;28;19933;-84
2023/06/19 08:02:18;;;;;;;;;;;20.40;99.90;;;;;;5012268;28;19925;-86
2023/06/19 08:04:44;;;;;;;;;;;20.40;99.90;;;;;;4994770;28;20389;-85
2023/06/19 08:07:11;;;;;;;;;;;20.50;99.90;;;;;;5011931;28;19933;-87
2023/06/19 08:09:38;;;;;;;;;;;20.40;99.90;;;;;;5005957;28;20407;-86
2023/06/19 08:12:04;;;;;;;;;;;20.40;99.90;;;;;;5013739;28;20321;-85
2023/06/19 08:14:49;;;;;;;;;;;20.40;99.90;;;;;;5030555;28;20017;-85
2023/06/19 08:17:15;;;;;;;;;;;20.40;99.90;;;;;;5028345;28;19965;-86
2023/06/19 08:19:42;;;;;;;;;;;20.30;99.90;;;;;;5013027;28;20456;-84
2023/06/19 08:22:11;;;;;;;;;;;20.30;99.90;;;;;;5014912;28;19925;-88
2023/06/19 08:24:38;;;;;;;;;;;20.20;99.90;;;;;;5013061;28;19929;-86
2023/06/19 08:27:09;;;;;;;;;;;20.20;99.90;;;;;;5031214;28;20393;-88
2023/06/19 08:29:37;;;;;;;;;;;20.10;99.90;;;;;;5031068;28;19925;-85
2023/06/19 08:32:11;;;;;;;;;;;20.20;99.90;;;;;;5014337;28;20342;-87
2023/06/19 08:34:41;;;;;;;;;;;20.20;99.90;;;;;;5001543;28;20304;-85
2023/06/19 08:37:09;;;;;;;;;;;20.30;99.90;;;;;;4995310;28;19925;-87
2023/06/19 08:39:46;;;;;;;;;;;20.20;99.90;;;;;;5011559;28;20246;-86
2023/06/19 08:42:12;;;;;;;;;;;20.20;99.90;;;;;;5006494;28;19931;-86
2023/06/19 08:44:39;;;;;;;;;;;20.10;99.90;;;;;;5005877;28;20023;-85
2023/06/19 08:47:05;;;;;;;;;;;20.00;99.90;;;;;;5027157;28;19967;-87
2023/06/19 08:49:35;;;;;;;;;;;20.00;99.90;;;;;;5004102;28;19926;-85
2023/06/19 08:52:04;;;;;;;;;;;20.10;99.90;;;;;;5025056;28;19961;-84
2023/06/19 08:54:30;;;;;;;;;;;20.10;99.90;;;;;;4994675;28;19925;-86
2023/06/19 08:56:59;;;;;;;;;;;20.10;99.90;;;;;;5025103;28;19931;-85
2023/06/19 08:59:28;;;;;;;;;;;20.20;99.90;;;;;;5005385;28;19968;-85
2023/06/19 09:02:11;;;;;;;;;;;20.20;99.90;;;;;;5006539;28;20267;-85
2023/06/19 09:04:37;;;;;;;;;;;20.10;99.90;;;;;;5022114;28;19933;-84
2023/06/19 09:07:03;;;;;;;;;;;20.20;99.90;;;;;;5005705;28;19994;-85
2023/06/19 09:09:29;;;;;;;;;;;20.40;99.90;;;;;;5010399;28;19933;-87
2023/06/19 09:12:01;;;;;;;;;;;20.40;99.90;;;;;;5000288;28;19925;-85
2023/06/19 09:14:35;;;;;;;;;;;20.60;99.90;;;;;;5006778;28;19925;-85
2023/06/19 09:17:04;;;;;;;;;;;20.70;99.90;;;;;;5008539;28;19932;-84
2023/06/19 09:19:30;;;;;;;;;;;20.80;99.90;;;;;;5027568;28;19964;-84
2023/06/19 09:21:59;;;;;;;;;;;20.90;99.90;;;;;;5014052;28;19968;-84
2023/06/19 09:24:32;;;;;;;;;;;21.00;99.90;;;;;;5029762;28;20369;-85
2023/06/19 09:27:13;;;;;;;;;;;21.00;99.90;;;;;;5018849;28;19926;-84
2023/06/19 09:29:43;;;;;;;;;;;21.10;99.90;;;;;;5029485;28;19925;-84
2023/06/19 09:32:17;;;;;;;;;;;21.20;99.90;;;;;;5019925;28;20015;-85
2023/06/19 09:34:43;;;;;;;;;;;21.50;99.90;;;;;;5002649;28;19926;-84
2023/06/19 09:37:09;;;;;;;;;;;21.50;99.90;;;;;;4992784;28;19983;-86
2023/06/19 09:39:37;;;;;;;;;;;21.40;99.90;;;;;;5012655;28;19925;-84
2023/06/19 09:42:03;;;;;;;;;;;21.30;99.90;;;;;;5029440;28;20341;-86
2023/06/19 09:44:31;;;;;;;;;;;21.20;99.90;;;;;;5005128;28;19944;-87
2023/06/19 09:46:59;;;;;;;;;;;21.20;99.90;;;;;;5009710;28;19972;-85
2023/06/19 09:49:26;;;;;;;;;;;21.10;99.90;;;;;;5029439;28;19925;-86
2023/06/19 09:51:52;;;;;;;;;;;21.00;99.90;;;;;;5013513;28;19929;-84
2023/06/19 09:54:19;;;;;;;;;;;20.80;99.90;;;;;;5030215;28;20351;-83
2023/06/19 09:56:45;;;;;;;;;;;20.80;99.90;;;;;;5029150;28;19932;-84
2023/06/19 09:59:12;;;;;;;;;;;20.90;99.90;;;;;;5008389;28;19975;-85
2023/06/19 10:01:38;;;;;;;;;;;20.80;99.90;;;;;;5009905;28;19937;-86
2023/06/19 10:04:05;;;;;;;;;;;20.70;99.90;;;;;;4995845;28;20381;-84
2023/06/19 10:06:31;;;;;;;;;;;20.70;99.90;;;;;;5032257;28;20258;-83
2023/06/19 10:09:06;;;;;;;;;;;20.70;99.90;;;;;;5031305;28;20079;-85
2023/06/19 10:11:48;;;;;;;;;;;20.70;99.90;;;;;;5029310;28;19983;-85
2023/06/19 10:14:13;;;;;;;;;;;20.80;99.90;;;;;;5030120;28;19974;-86
2023/06/19 10:16:42;;;;;;;;;;;20.90;99.90;;;;;;5012394;28;20015;-85
2023/06/19 10:19:13;;;;;;;;;;;20.90;99.90;;;;;;5028142;28;19951;-86
2023/06/19 10:21:46;;;;;;;;;;;21.00;99.90;;;;;;5014513;28;19952;-85
2023/06/19 10:24:14;;;;;;;;;;;20.90;99.90;;;;;;5012549;28;20028;-86
2023/06/19 10:26:39;;;;;;;;;;;20.90;99.90;;;;;;5026506;28;19929;-85
2023/06/19 10:29:17;;;;;;;;;;;20.80;99.90;;;;;;5015527;28;19991;-85
2023/06/19 10:31:44;;;;;;;;;;;20.70;99.90;;;;;;4997637;28;19926;-85
2023/06/19 10:34:10;;;;;;;;;;;20.70;99.90;;;;;;5032361;28;20412;-83
2023/06/19 10:36:35;;;;;;;;;;;20.80;99.90;;;;;;5032297;28;19972;-84
2023/06/19 10:39:01;;;;;;;;;;;20.80;99.90;;;;;;5015833;28;20365;-84
2023/06/19 10:41:26;;;;;;;;;;;20.70;99.90;;;;;;5031190;28;19935;-84
2023/06/19 10:44:00;;;;;;;;;;;20.60;99.90;;;;;;5015456;28;19929;-84
2023/06/19 10:46:30;;;;;;;;;;;20.60;99.90;;;;;;5015429;28;19925;-84
2023/06/19 10:49:00;;;;;;;;;;;20.90;99.90;;;;;;5012472;28;20320;-84
2023/06/19 10:51:29;;;;;;;;;;;21.20;99.90;;;;;;5011317;28;19926;-84
2023/06/19 10:53:55;;;;;;;;;;;21.30;99.90;;;;;;5033332;28;20304;-84
2023/06/19 10:56:21;;;;;;;;;;;21.50;99.90;;;;;;5033799;28;19932;-83
2023/06/19 10:58:47;;;;;;;;;;;21.50;99.90;;;;;;4993899;28;20039;-83
2023/06/19 11:01:13;;;;;;;;;;;21.50;99.90;;;;;;5021509;28;20021;-83
2023/06/19 11:03:38;;;;;;;;;;;21.60;99.90;;;;;;5009498;28;19980;-84
2023/06/19 11:06:04;;;;;;;;;;;21.60;99.90;;;;;;5033686;28;19925;-83
2023/06/19 11:08:30;;;;;;;;;;;21.50;99.90;;;;;;4997204;28;19926;-84
2023/06/19 11:10:58;;;;;;;;;;;21.40;99.90;;;;;;5030580;28;19929;-83
2023/06/19 11:13:27;;;;;;;;;;;21.50;99.90;;;;;;5032193;28;20234;-84
2023/06/19 11:15:52;;;;;;;;;;;21.50;99.90;;;;;;5015074;28;19948;-84
2023/06/19 11:18:19;;;;;;;;;;;21.60;99.90;;;;;;5013439;28;19926;-83
2023/06/19 11:20:50;;;;;;;;;;;21.60;99.90;;;;;;5016500;28;20273;-85
2023/06/19 11:23:16;;;;;;;;;;;21.70;99.90;;;;;;5030012;28;20010;-83
2023/06/19 11:25:42;;;;;;;;;;;21.70;99.90;;;;;;5034063;28;19929;-84
2023/06/19 11:28:14;;;;;;;;;;;22.00;99.90;;;;;;5030208;28;19925;-84
2023/06/19 11:30:40;;;;;;;;;;;22.40;99.90;;;;;;5033346;28;19929;-85
2023/06/19 11:33:21;;;;;;;;;;;22.40;99.90;;;;;;4996623;28;19967;-85
2023/06/19 11:35:51;;;;;;;;;;;22.60;99.90;;;;;;5016484;28;19925;-83
2023/06/19 11:38:18;;;;;;;;;;;22.60;99.90;;;;;;5016265;28;20016;-83
2023/06/19 11:40:43;;;;;;;;;;;22.40;99.90;;;;;;5016316;28;20356;-86
2023/06/19 11:43:09;;;;;;;;;;;22.20;99.90;;;;;;5031770;28;19972;-84
2023/06/19 11:45:44;;;;;;;;;;;22.20;99.90;;;;;;5016253;28;19994;-84
2023/06/19 11:48:11;;;;;;;;;;;22.30;99.90;;;;;;5022517;28;19984;-84
2023/06/19 11:50:37;;;;;;;;;;;22.50;99.90;;;;;;5016711;28;19986;-84
2023/06/19 11:53:03;;;;;;;;;;;22.60;99.90;;;;;;5031418;28;20012;-84
2023/06/19 11:55:28;;;;;;;;;;;22.60;99.90;;;;;;5009433;28;20298;-84
2023/06/19 11:57:54;;;;;;;;;;;22.80;99.90;;;;;;5015583;28;20051;-85
2023/06/19 12:00:19;;;;;;;;;;;22.70;99.90;;;;;;4988577;28;20360;-84
2023/06/19 12:02:47;;;;;;;;;;;22.80;99.90;;;;;;5014139;28;20246;-84
2023/06/19 12:05:13;;;;;;;;;;;22.80;99.90;;;;;;5031229;28;19925;-84
2023/06/19 12:07:39;;;;;;;;;;;22.70;99.90;;;;;;5029445;28;19936;-85
2023/06/19 12:10:09;;;;;;;;;;;22.60;99.90;;;;;;5031650;28;19936;-87
2023/06/19 12:12:41;;;;;;;;;;;22.50;99.90;;;;;;5008321;28;19932;-86
2023/06/19 12:15:07;;;;;;;;;;;22.50;99.90;;;;;;4998308;28;20369;-85
2023/06/19 12:17:32;;;;;;;;;;;22.50;99.90;;;;;;5010855;28;19977;-87
2023/06/19 12:19:58;;;;;;;;;;;22.70;99.90;;;;;;5008144;28;20441;-85
2023/06/19 12:22:30;;;;;;;;;;;22.80;99.90;;;;;;5012877;28;20022;-86
2023/06/19 12:24:56;;;;;;;;;;;22.60;99.90;;;;;;5014847;28;19972;-86
2023/06/19 12:27:21;;;;;;;;;;;22.50;99.90;;;;;;4998219;28;19948;-84
2023/06/19 12:29:48;;;;;;;;;;;22.50;99.90;;;;;;5031833;28;19976;-84
2023/06/19 12:32:13;;;;;;;;;;;22.70;99.90;;;;;;5010975;28;19976;-87
2023/06/19 12:34:40;;;;;;;;;;;22.90;99.90;;;;;;5034946;28;19934;-84
2023/06/19 12:37:08;;;;;;;;;;;22.70;99.90;;;;;;5031231;28;19932;-85
2023/06/19 12:39:34;;;;;;;;;;;23.00;99.90;;;;;;5031138;28;20015;-84
2023/06/19 12:42:00;;;;;;;;;;;23.10;99.90;;;;;;5010928;28;20296;-85
2023/06/19 12:44:25;;;;;;;;;;;23.60;99.90;;;;;;4995228;28;19992;-84
2023/06/19 12:46:52;;;;;;;;;;;23.80;99.90;;;;;;4994179;28;20288;-85
2023/06/19 12:49:18;;;;;;;;;;;23.80;99.90;;;;;;5009676;28;20269;-84
2023/06/19 12:51:51;;;;;;;;;;;23.80;99.90;;;;;;5004742;28;20369;-84
2023/06/19 12:54:17;;;;;;;;;;;23.90;99.90;;;;;;4994953;28;19991;-85
2023/06/19 12:56:43;;;;;;;;;;;24.20;99.90;;;;;;5007582;28;20342;-86
2023/06/19 12:59:09;;;;;;;;;;;24.40;99.90;;;;;;5003328;28;19933;-86
2023/06/19 13:01:35;;;;;;;;;;;24.50;99.90;;;;;;5009876;28;20016;-86
2023/06/19 13:04:01;;;;;;;;;;;24.60;99.90;;;;;;5010204;28;20031;-86
2023/06/19 13:06:27;;;;;;;;;;;24.60;99.90;;;;;;5026124;28;20029;-86
2023/06/19 13:08:52;;;;;;;;;;;24.50;99.90;;;;;;5031931;28;19925;-85
2023/06/19 13:11:18;;;;;;;;;;;24.50;99.90;;;;;;5014250;28;19925;-85
2023/06/19 13:13:44;;;;;;;;;;;24.50;99.90;;;;;;5010639;28;19926;-84
2023/06/19 13:16:09;;;;;;;;;;;24.50;99.90;;;;;;5013096;28;19988;-85
2023/06/19 13:18:35;;;;;;;;;;;24.50;99.90;;;;;;4996522;28;19925;-85
2023/06/19 13:21:01;;;;;;;;;;;24.60;99.90;;;;;;5012651;28;20022;-84
2023/06/19 13:23:26;;;;;;;;;;;24.70;99.90;;;;;;5010324;28;19948;-87
2023/06/19 13:25:53;;;;;;;;;;;24.70;99.90;;;;;;5023793;28;19925;-84
2023/06/19 13:28:21;;;;;;;;;;;24.60;99.90;;;;;;5013891;28;20521;-85
2023/06/19 13:30:47;;;;;;;;;;;24.30;99.90;;;;;;5013089;28;19925;-86
2023/06/19 13:33:17;;;;;;;;;;;24.40;99.90;;;;;;5028677;28;19929;-85
2023/06/19 13:35:46;;;;;;;;;;;24.70;99.90;;;;;;5035631;28;19931;-85
2023/06/19 13:38:12;;;;;;;;;;;24.70;99.90;;;;;;5030684;28;19925;-85
2023/06/19 13:40:44;;;;;;;;;;;24.50;99.70;;;;;;5030453;28;19955;-85
2023/06/19 13:43:12;;;;;;;;;;;24.40;99.90;;;;;;5016976;28;19936;-88
2023/06/19 13:45:38;;;;;;;;;;;24.40;99.90;;;;;;5014757;28;20020;-84
2023/06/19 13:48:04;;;;;;;;;;;24.30;99.90;;;;;;5009990;28;19926;-85
2023/06/19 13:50:33;;;;;;;;;;;24.60;99.90;;;;;;5033171;28;19925;-85
2023/06/19 13:52:59;;;;;;;;;;;24.50;99.90;;;;;;5015327;28;20034;-84
2023/06/19 13:55:25;;;;;;;;;;;24.40;99.90;;;;;;5030004;28;19976;-85
2023/06/19 13:57:51;;;;;;;;;;;24.40;99.90;;;;;;5000675;28;19929;-84
2023/06/19 14:00:18;;;;;;;;;;;24.30;99.40;;;;;;5034145;28;20002;-85
2023/06/19 14:02:44;;;;;;;;;;;24.40;99.50;;;;;;5015987;28;19936;-85
2023/06/19 14:05:10;;;;;;;;;;;24.10;99.60;;;;;;5033381;28;20024;-85
2023/06/19 14:07:37;;;;;;;;;;;23.90;99.90;;;;;;5012215;28;19980;-86
2023/06/19 14:10:04;;;;;;;;;;;24.10;99.90;;;;;;5013805;28;19925;-85
2023/06/19 14:12:33;;;;;;;;;;;24.20;99.90;;;;;;5015965;28;19934;-86
2023/06/19 14:15:06;;;;;;;;;;;24.50;99.90;;;;;;4997813;28;19930;-83